createdAt,value
2022-11-17T00:04:54.426Z,8.50
2022-11-17T00:07:21.498Z,7.70
2022-11-17T00:30:07.450Z,8.10
2022-11-17T00:43:01.733Z,8.20
2022-11-17T00:47:56.139Z,8.60
2022-11-17T00:50:24.121Z,8.30
2022-11-17T00:55:18.838Z,8.10
2022-11-17T01:00:13.734Z,8.10
2022-11-17T01:05:08.561Z,8.30
2022-11-17T01:14:58.031Z,7.90
2022-11-17T01:17:25.210Z,7.80
2022-11-17T01:22:19.807Z,8.00
2022-11-17T01:27:14.195Z,7.70
2022-11-17T01:34:35.905Z,7.70
2022-11-17T01:39:49.317Z,7.50
2022-11-17T01:44:48.229Z,7.40
2022-11-17T01:47:40.608Z,7.50
2022-11-17T01:50:20.540Z,7.40
2022-11-17T01:52:50.717Z,7.40
2022-11-17T01:55:21.748Z,7.30
2022-11-17T01:58:03.321Z,7.30
2022-11-17T02:05:52.846Z,7.20
2022-11-17T02:08:22.349Z,7.20
2022-11-17T02:10:52.101Z,7.30
2022-11-17T02:13:21.209Z,7.40
2022-11-17T02:15:49.171Z,7.50
2022-11-17T02:18:17.589Z,7.40
2022-11-17T02:21:05.455Z,7.40
2022-11-17T02:23:53.562Z,7.40
2022-11-17T02:28:54.743Z,7.40
2022-11-17T02:31:45.932Z,7.20
2022-11-17T02:34:28.036Z,7.50
2022-11-17T02:39:38.439Z,7.60
2022-11-17T02:42:14.059Z,7.60
2022-11-17T02:47:14.618Z,7.60
2022-11-17T02:49:50.360Z,7.60
2022-11-17T02:52:18.982Z,7.10
2022-11-17T02:57:32.675Z,7.60
2022-11-17T03:00:04.637Z,7.60
2022-11-17T03:03:05.686Z,7.50
2022-11-17T03:05:46.432Z,7.60
2022-11-17T03:08:33.358Z,7.50
2022-11-17T03:11:07.219Z,7.40
2022-11-17T03:13:59.480Z,7.40
2022-11-17T03:16:49.592Z,7.30
2022-11-17T03:19:43.817Z,7.00
2022-11-17T03:22:32.213Z,7.20
2022-11-17T03:25:04.531Z,7.20
2022-11-17T03:27:37.059Z,7.30
2022-11-17T03:30:08.314Z,7.30
2022-11-17T03:32:41.248Z,7.30
2022-11-17T03:35:17.087Z,7.30
2022-11-17T03:37:50.061Z,7.30
2022-11-17T03:40:21.193Z,7.40
2022-11-17T03:42:53.856Z,7.40
2022-11-17T03:45:29.889Z,7.40
2022-11-17T03:48:21.963Z,7.50
2022-11-17T03:51:04.477Z,7.60
2022-11-17T03:53:32.583Z,7.50
2022-11-17T03:56:11.604Z,7.50
2022-11-17T03:58:47.323Z,7.50
2022-11-17T04:01:15.188Z,7.50
2022-11-17T04:11:23.018Z,7.40
2022-11-17T04:31:39.420Z,7.40
2022-11-17T04:34:07.888Z,7.40
2022-11-17T04:39:03.062Z,7.30
2022-11-17T04:41:48.993Z,7.30
2022-11-17T04:44:17.845Z,7.30
2022-11-17T04:46:48.634Z,5.90
2022-11-17T04:49:17.210Z,7.20
2022-11-17T04:51:44.653Z,7.20
2022-11-17T04:54:14.681Z,7.20
2022-11-17T04:59:09.306Z,7.00
2022-11-17T05:01:36.953Z,7.00
2022-11-17T05:04:33.467Z,7.00
2022-11-17T05:17:11.252Z,6.90
2022-11-17T05:19:41.649Z,6.90
2022-11-17T05:22:28.489Z,6.70
2022-11-17T05:24:56.156Z,6.90
2022-11-17T05:27:23.875Z,7.00
2022-11-17T05:32:18.637Z,6.90
2022-11-17T05:39:40.611Z,6.90
2022-11-17T05:47:02.375Z,6.90
2022-11-17T05:57:06.956Z,6.90
2022-11-17T05:59:45.885Z,6.80
2022-11-17T06:02:21.276Z,6.70
2022-11-17T06:04:50.503Z,6.70
2022-11-17T06:07:19.462Z,6.90
2022-11-17T06:09:47.007Z,6.70
2022-11-17T06:14:42.779Z,6.60
2022-11-17T06:17:22.885Z,6.70
2022-11-17T06:19:57.572Z,6.70
2022-11-17T06:22:26.705Z,6.90
2022-11-17T06:24:54.419Z,6.80
2022-11-17T06:29:49.828Z,7.00
2022-11-17T06:32:18.932Z,6.60
2022-11-17T06:34:53.833Z,6.50
2022-11-17T06:37:23.638Z,6.60
2022-11-17T06:47:12.677Z,6.10
2022-11-17T06:49:39.656Z,6.40
2022-11-17T07:01:56.237Z,6.40
2022-11-17T07:06:50.649Z,6.70
2022-11-17T07:14:12.571Z,6.60
2022-11-17T07:16:42.908Z,6.60
2022-11-17T07:19:10.948Z,6.50
2022-11-17T07:21:37.928Z,6.40
2022-11-17T07:29:04.543Z,6.60
2022-11-17T07:41:21.366Z,6.60
2022-11-17T07:46:16.045Z,6.70
2022-11-17T07:48:43.676Z,6.60
2022-11-17T07:51:12.295Z,6.60
2022-11-17T07:56:09.328Z,6.60
2022-11-17T07:58:37.580Z,6.60
2022-11-17T08:01:15.388Z,6.70
2022-11-17T08:03:43.619Z,6.90
2022-11-17T08:06:11.230Z,6.90
2022-11-17T08:08:38.774Z,6.90
2022-11-17T08:11:10.565Z,6.70
2022-11-17T08:13:39.421Z,6.80
2022-11-17T08:16:07.800Z,6.80
2022-11-17T08:21:04.022Z,6.80
2022-11-17T08:28:26.298Z,7.00
2022-11-17T08:35:48.216Z,7.30
2022-11-17T08:38:15.509Z,7.30
2022-11-17T08:43:10.191Z,7.30
2022-11-17T08:53:01.780Z,7.30
2022-11-17T08:55:28.968Z,7.30
2022-11-17T08:57:56.023Z,7.30
2022-11-17T09:00:23.209Z,7.30
2022-11-17T09:10:13.046Z,7.30
2022-11-17T09:15:08.033Z,8.00
2022-11-17T09:27:25.038Z,7.60
2022-11-17T09:32:20.741Z,7.70
2022-11-17T09:42:15.672Z,7.30
2022-11-17T09:44:51.482Z,7.80
2022-11-17T09:47:43.654Z,7.50
2022-11-17T09:50:24.536Z,7.60
2022-11-17T09:52:59.704Z,7.30
2022-11-17T09:55:39.944Z,7.40
2022-11-17T09:58:27.133Z,7.50
2022-11-17T10:03:31.977Z,7.40
2022-11-17T10:06:03.752Z,7.50
2022-11-17T10:08:40.085Z,7.70
2022-11-17T10:11:33.881Z,7.70
2022-11-17T10:14:15.824Z,7.70
2022-11-17T10:16:50.897Z,7.80
2022-11-17T10:19:21.650Z,7.50
2022-11-17T10:22:03.827Z,7.60
2022-11-17T10:24:41.483Z,7.60
2022-11-17T10:27:17.458Z,7.60
2022-11-17T10:30:17.856Z,7.60
2022-11-17T10:32:55.791Z,7.60
2022-11-17T10:38:08.531Z,7.80
2022-11-17T10:40:38.960Z,7.90
2022-11-17T10:43:12.018Z,7.30
2022-11-17T10:45:56.509Z,7.80
2022-11-17T10:48:28.738Z,7.70
2022-11-17T10:51:15.353Z,7.80
2022-11-17T10:53:46.740Z,7.70
2022-11-17T10:56:21.821Z,7.80
2022-11-17T10:59:09.613Z,7.30
2022-11-17T11:01:39.079Z,7.90
2022-11-17T11:04:25.678Z,7.80
2022-11-17T11:07:06.419Z,8.10
2022-11-17T11:09:35.942Z,7.80
2022-11-17T11:12:06.078Z,7.50
2022-11-17T11:14:59.879Z,7.50
2022-11-17T11:17:30.109Z,7.90
2022-11-17T11:19:57.901Z,7.70
2022-11-17T11:22:27.953Z,7.50
2022-11-17T11:25:02.061Z,7.90
2022-11-17T11:27:48.067Z,8.00
2022-11-17T11:30:19.449Z,7.90
2022-11-17T11:33:33.325Z,7.90
2022-11-17T11:36:19.331Z,7.80
2022-11-17T11:39:14.884Z,7.50
2022-11-17T11:44:18.026Z,8.10
2022-11-17T11:49:21.399Z,7.70
2022-11-17T11:51:51.277Z,7.70
2022-11-17T11:54:50.552Z,7.60
2022-11-17T11:57:24.309Z,7.70
2022-11-17T12:00:04.311Z,7.60
2022-11-17T12:03:02.507Z,7.60
2022-11-17T12:06:37.972Z,7.70
2022-11-17T12:09:28.944Z,7.70
2022-11-17T12:12:00.262Z,7.90
2022-11-17T12:14:37.871Z,8.00
2022-11-17T12:17:14.048Z,7.70
2022-11-17T12:19:55.253Z,8.10
2022-11-17T12:22:25.393Z,7.60
2022-11-17T12:24:57.312Z,7.80
2022-11-17T12:27:33.560Z,7.80
2022-11-17T12:30:02.473Z,7.80
2022-11-17T12:32:45.284Z,7.70
2022-11-17T12:35:31.668Z,7.70
2022-11-17T12:38:16.909Z,7.80
2022-11-17T12:40:50.782Z,7.70
2022-11-17T12:43:23.702Z,7.70
2022-11-17T12:45:53.719Z,7.80
2022-11-17T12:48:33.986Z,7.70
2022-11-17T12:53:57.653Z,7.80
2022-11-17T12:56:53.623Z,7.80
2022-11-17T12:59:58.772Z,8.00
2022-11-17T13:02:47.284Z,8.00
2022-11-17T13:07:42.697Z,8.00
2022-11-17T13:10:30.775Z,8.10
2022-11-17T13:13:19.507Z,8.40
2022-11-17T13:15:56.038Z,8.00
2022-11-17T13:20:50.605Z,8.70
2022-11-17T13:23:25.774Z,8.50
2022-11-17T13:26:24.066Z,8.60
2022-11-17T13:29:12.563Z,8.40
2022-11-17T13:31:39.954Z,8.30
2022-11-17T13:34:13.454Z,8.60
2022-11-17T13:36:58.181Z,8.30
2022-11-17T13:39:27.915Z,8.80
2022-11-17T13:41:57.760Z,8.00
2022-11-17T13:44:27.625Z,8.00
2022-11-17T13:46:55.279Z,8.20
2022-11-17T13:49:35.011Z,7.90
2022-11-17T13:52:03.176Z,8.10
2022-11-17T13:54:30.633Z,7.80
2022-11-17T13:57:07.944Z,8.00
2022-11-17T13:59:37.293Z,7.60
2022-11-17T14:02:16.564Z,7.90
2022-11-17T14:05:09.743Z,8.00
2022-11-17T14:07:39.030Z,7.90
2022-11-17T14:10:28.102Z,7.90
2022-11-17T14:13:01.117Z,7.90
2022-11-17T14:15:31.175Z,8.00
2022-11-17T14:18:00.549Z,7.90
2022-11-17T14:20:32.577Z,8.10
2022-11-17T14:23:19.894Z,7.90
2022-11-17T14:25:51.548Z,8.10
2022-11-17T14:28:21.366Z,8.20
2022-11-17T14:30:53.444Z,8.20
2022-11-17T14:35:57.026Z,8.10
2022-11-17T14:40:52.640Z,8.20
2022-11-17T14:43:21.055Z,8.10
2022-11-17T14:45:49.727Z,8.10
2022-11-17T14:48:20.283Z,7.90
2022-11-17T14:50:48.450Z,8.50
2022-11-17T14:53:15.691Z,7.80
2022-11-17T14:58:10.291Z,7.80
2022-11-17T15:05:32.512Z,7.90
2022-11-17T15:12:54.552Z,8.00
2022-11-17T15:20:16.908Z,7.80
2022-11-17T15:25:11.408Z,7.70
2022-11-17T15:30:06.584Z,7.60
2022-11-17T15:32:33.741Z,7.40
2022-11-17T15:35:00.727Z,7.90
2022-11-17T15:37:27.868Z,7.00
2022-11-17T15:42:22.462Z,7.40
2022-11-17T15:44:49.421Z,7.30
2022-11-17T15:52:13.646Z,7.60
2022-11-17T15:57:08.325Z,7.40
2022-11-17T16:02:09.098Z,7.00
2022-11-17T16:04:36.383Z,7.10
2022-11-17T16:11:59.066Z,7.20
2022-11-17T16:19:21.091Z,7.10
2022-11-17T16:31:40.709Z,7.20
2022-11-17T16:34:12.906Z,7.20
2022-11-17T16:36:41.484Z,7.20
2022-11-17T16:39:11.753Z,7.20
2022-11-17T16:41:41.396Z,7.20
2022-11-17T16:44:11.472Z,7.10
2022-11-17T16:49:09.309Z,7.00
2022-11-17T16:51:36.373Z,7.10
2022-11-17T16:54:10.521Z,7.00
2022-11-17T17:01:34.765Z,7.00
2022-11-17T17:04:04.867Z,7.00
2022-11-17T17:09:03.037Z,7.00
2022-11-17T17:11:32.053Z,7.00
2022-11-17T17:14:02.885Z,7.00
2022-11-17T17:16:31.498Z,7.00
2022-11-17T17:19:01.713Z,7.00
2022-11-17T17:21:29.875Z,6.80
2022-11-17T17:23:57.473Z,6.60
2022-11-17T17:26:27.678Z,7.10
2022-11-17T17:28:56.792Z,7.00
2022-11-17T17:31:25.239Z,7.20
2022-11-17T17:33:52.812Z,7.30
2022-11-17T17:36:22.585Z,7.10
2022-11-17T17:38:55.338Z,7.20
2022-11-17T17:41:26.869Z,7.20
2022-11-17T17:43:57.013Z,7.20
2022-11-17T17:48:51.612Z,7.10
2022-11-17T17:51:20.692Z,7.30
2022-11-17T17:56:19.722Z,7.30
2022-11-17T17:58:48.944Z,7.70
2022-11-17T18:01:36.841Z,7.30
2022-11-17T18:04:05.108Z,7.30
2022-11-17T18:06:41.219Z,7.20
2022-11-17T18:09:10.064Z,7.10
2022-11-17T18:11:40.528Z,6.80
2022-11-17T18:14:09.829Z,7.20
2022-11-17T18:19:07.551Z,7.10
2022-11-17T18:21:36.220Z,7.20
2022-11-17T18:26:34.017Z,7.10
2022-11-17T18:29:06.966Z,7.10
2022-11-17T18:31:36.225Z,7.10
2022-11-17T18:34:06.852Z,7.10
2022-11-17T18:44:01.657Z,7.00
2022-11-17T18:46:30.791Z,7.00
2022-11-17T18:48:58.776Z,6.80
2022-11-17T18:51:28.244Z,6.60
2022-11-17T18:53:57.388Z,6.90
2022-11-17T18:56:26.950Z,6.50
2022-11-17T19:01:27.873Z,6.90
2022-11-17T19:03:57.233Z,6.90
2022-11-17T19:06:25.096Z,7.20
2022-11-17T19:11:21.819Z,6.90
2022-11-17T19:16:18.819Z,6.70
2022-11-17T19:18:47.667Z,6.70
2022-11-17T19:21:17.288Z,6.50
2022-11-17T19:23:51.432Z,6.70
2022-11-17T19:26:27.608Z,6.70
2022-11-17T19:28:56.163Z,6.70
2022-11-17T19:31:23.910Z,6.70
2022-11-17T19:36:21.000Z,6.80
2022-11-17T19:38:55.865Z,6.80
2022-11-17T19:41:31.805Z,6.80
2022-11-17T19:44:03.995Z,6.30
2022-11-17T19:46:32.230Z,6.80
2022-11-17T19:48:59.976Z,6.80
2022-11-17T19:51:30.175Z,6.80
2022-11-17T19:54:01.106Z,6.60
2022-11-17T19:56:28.541Z,6.80
2022-11-17T20:01:25.367Z,6.70
2022-11-17T20:06:22.535Z,6.70
2022-11-17T20:11:20.548Z,6.60
2022-11-17T20:16:20.408Z,6.70
2022-11-17T20:18:53.993Z,6.80
2022-11-17T20:23:48.787Z,6.80
2022-11-17T20:26:40.359Z,6.90
2022-11-17T20:31:36.415Z,6.90
2022-11-17T20:34:05.356Z,6.90
2022-11-17T20:36:34.175Z,6.90
2022-11-17T20:39:04.245Z,6.90
2022-11-17T20:41:31.558Z,6.80
2022-11-17T20:44:00.711Z,6.80
2022-11-17T20:48:55.607Z,6.90
2022-11-17T20:51:24.305Z,6.30
2022-11-17T20:53:51.592Z,6.90
2022-11-17T20:56:19.327Z,9.40
2022-11-17T21:01:16.073Z,6.90
2022-11-17T21:03:45.227Z,6.90
2022-11-17T21:06:13.433Z,6.90
2022-11-17T21:08:42.285Z,7.00
2022-11-17T21:11:32.270Z,6.90
2022-11-17T21:18:54.280Z,7.10
2022-11-17T21:23:53.686Z,6.90
2022-11-17T21:31:21.106Z,6.90
2022-11-17T21:36:17.303Z,6.90
2022-11-17T21:38:45.553Z,7.50
2022-11-17T21:41:21.047Z,6.90
2022-11-17T21:43:49.877Z,6.90
2022-11-17T21:46:23.106Z,7.40
2022-11-17T21:48:51.426Z,6.80
2022-11-17T21:51:33.261Z,6.90
2022-11-17T21:59:32.421Z,6.80
2022-11-17T22:09:22.606Z,6.90
2022-11-17T22:14:20.069Z,7.00
2022-11-17T22:16:49.313Z,7.10
2022-11-17T22:19:17.212Z,7.00
2022-11-17T22:21:46.940Z,7.00
2022-11-17T22:26:43.893Z,7.10
2022-11-17T22:29:19.925Z,6.80
2022-11-17T22:31:48.680Z,7.10
2022-11-17T22:34:16.324Z,6.80
2022-11-17T22:41:38.395Z,7.00
2022-11-17T22:46:34.978Z,6.90
2022-11-17T23:09:02.461Z,6.60
2022-11-17T23:14:12.401Z,6.60
2022-11-17T23:19:09.446Z,5.90
2022-11-17T23:21:36.581Z,6.50
2022-11-17T23:24:04.789Z,6.50
2022-11-17T23:38:54.783Z,6.30
2022-11-17T23:41:22.010Z,6.40
2022-11-17T23:43:53.523Z,6.20
2022-11-17T23:46:23.625Z,6.20
2022-11-17T23:51:22.947Z,6.40
2022-11-17T23:53:49.987Z,6.30
2022-11-17T23:56:19.207Z,6.30
2022-11-17T23:58:46.501Z,6.30
